createdAt,value
2019-02-11T00:00:37.157Z,100.00
2019-02-11T00:05:48.259Z,100.00
2019-02-11T00:10:54.239Z,100.00
2019-02-11T00:16:00.671Z,100.00
2019-02-11T00:21:08.752Z,100.00
2019-02-11T00:26:12.156Z,100.00
2019-02-11T00:31:24.571Z,100.00
2019-02-11T00:36:35.490Z,100.00
2019-02-11T00:41:42.327Z,100.00
2019-02-11T00:46:47.631Z,100.00
2019-02-11T00:51:51.078Z,100.00
2019-02-11T00:56:54.704Z,100.00
2019-02-11T01:01:59.977Z,100.00
2019-02-11T01:07:08.533Z,100.00
2019-02-11T01:12:12.416Z,100.00
2019-02-11T01:17:15.986Z,100.00
2019-02-11T01:22:21.043Z,100.00
2019-02-11T01:27:24.588Z,100.00
2019-02-11T01:32:32.692Z,100.00
2019-02-11T01:37:36.171Z,100.00
2019-02-11T01:42:39.661Z,100.00
2019-02-11T01:47:43.067Z,100.00
2019-02-11T01:52:46.502Z,100.00
2019-02-11T01:57:49.935Z,100.00
2019-02-11T02:02:53.353Z,100.00
2019-02-11T02:07:56.772Z,100.00
2019-02-11T02:13:00.204Z,100.00
2019-02-11T02:18:03.635Z,100.00
2019-02-11T02:23:07.137Z,100.00
2019-02-11T02:28:10.562Z,100.00
2019-02-11T02:33:13.994Z,100.00
2019-02-11T02:38:17.527Z,100.00
2019-02-11T02:43:21.063Z,100.00
2019-02-11T02:48:24.497Z,100.00
2019-02-11T02:53:27.918Z,100.00
2019-02-11T02:58:31.416Z,100.00
2019-02-11T03:03:34.844Z,100.00
2019-02-11T03:08:38.366Z,100.00
2019-02-11T03:13:41.782Z,100.00
2019-02-11T03:18:45.241Z,100.00
2019-02-11T03:23:48.654Z,100.00
2019-02-11T03:28:52.064Z,100.00
2019-02-11T03:33:55.593Z,100.00
2019-02-11T03:38:59.090Z,100.00
2019-02-11T03:44:02.580Z,100.00
2019-02-11T03:49:06.098Z,100.00
2019-02-11T03:54:09.505Z,100.00
2019-02-11T03:59:13.022Z,100.00
2019-02-11T04:04:16.452Z,100.00
2019-02-11T04:09:20.948Z,100.00
2019-02-11T04:14:25.273Z,100.00
2019-02-11T04:19:28.731Z,100.00
2019-02-11T04:24:32.171Z,100.00
2019-02-11T04:29:37.247Z,100.00
2019-02-11T04:34:40.690Z,100.00
2019-02-11T04:39:44.123Z,100.00
2019-02-11T04:44:47.530Z,100.00
2019-02-11T04:49:51.091Z,100.00
2019-02-11T04:54:54.521Z,100.00
2019-02-11T04:59:57.977Z,100.00
2019-02-11T05:05:01.397Z,100.00
2019-02-11T05:10:10.299Z,100.00
2019-02-11T05:15:13.784Z,100.00
2019-02-11T05:20:17.272Z,100.00
2019-02-11T05:25:20.706Z,100.00
2019-02-11T05:30:24.133Z,100.00
2019-02-11T05:35:27.620Z,100.00
2019-02-11T05:40:31.063Z,100.00
2019-02-11T05:45:34.552Z,100.00
2019-02-11T05:50:37.973Z,100.00
2019-02-11T05:55:41.515Z,100.00
2019-02-11T06:00:44.952Z,100.00
2019-02-11T06:05:48.371Z,100.00
2019-02-11T06:10:51.813Z,100.00
2019-02-11T06:15:55.244Z,100.00
2019-02-11T06:20:58.863Z,100.00
2019-02-11T06:26:02.360Z,100.00
2019-02-11T06:31:05.929Z,100.00
2019-02-11T06:36:12.256Z,100.00
2019-02-11T06:41:14.525Z,100.00
2019-02-11T06:46:17.956Z,100.00
2019-02-11T06:51:21.462Z,100.00
2019-02-11T06:56:24.910Z,100.00
2019-02-11T07:01:28.323Z,100.00
2019-02-11T07:06:31.755Z,100.00
2019-02-11T07:11:35.214Z,100.00
2019-02-11T07:16:38.642Z,100.00
2019-02-11T07:21:42.107Z,100.00
2019-02-11T07:26:45.705Z,100.00
2019-02-11T07:31:49.143Z,100.00
2019-02-11T07:36:52.592Z,100.00
2019-02-11T07:42:15.740Z,100.00
2019-02-11T07:47:19.412Z,100.00
2019-02-11T07:52:26.998Z,100.00
2019-02-11T07:57:28.540Z,100.00
2019-02-11T08:02:32.133Z,100.00
2019-02-11T08:07:35.586Z,100.00
2019-02-11T08:12:39.003Z,100.00
2019-02-11T08:17:42.445Z,100.00
2019-02-11T08:22:45.886Z,100.00
2019-02-11T08:27:49.317Z,100.00
2019-02-11T08:32:52.783Z,100.00
2019-02-11T08:37:56.227Z,100.00
2019-02-11T08:42:59.658Z,100.00
2019-02-11T08:48:03.092Z,100.00
2019-02-11T08:53:06.605Z,100.00
2019-02-11T08:58:10.138Z,100.00
2019-02-11T09:03:14.033Z,100.00
2019-02-11T09:08:17.474Z,100.00
2019-02-11T09:13:21.003Z,100.00
2019-02-11T09:18:24.418Z,100.00
2019-02-11T09:23:27.864Z,100.00
2019-02-11T09:28:31.270Z,100.00
2019-02-11T09:33:34.923Z,100.00
2019-02-11T09:38:38.447Z,100.00
2019-02-11T09:43:44.167Z,100.00
2019-02-11T09:48:47.614Z,100.00
2019-02-11T09:53:52.029Z,100.00
2019-02-11T09:58:55.498Z,100.00
2019-02-11T10:04:01.256Z,100.00
2019-02-11T10:09:05.648Z,100.00
2019-02-11T10:14:09.089Z,100.00
2019-02-11T10:19:12.573Z,100.00
2019-02-11T10:24:16.085Z,100.00
2019-02-11T10:29:19.849Z,100.00
2019-02-11T10:34:23.271Z,100.00
2019-02-11T10:39:26.718Z,100.00
2019-02-11T10:44:30.245Z,100.00
2019-02-11T10:49:33.708Z,100.00
2019-02-11T10:54:37.148Z,100.00
2019-02-11T10:59:40.754Z,100.00
2019-02-11T11:04:44.192Z,100.00
2019-02-11T11:09:47.807Z,100.00
2019-02-11T11:14:51.213Z,94.63
2019-02-11T11:19:54.643Z,95.32
2019-02-11T11:24:58.113Z,91.97
2019-02-11T11:30:02.313Z,88.23
2019-02-11T11:35:08.450Z,85.91
2019-02-11T11:40:20.377Z,85.64
2019-02-11T11:45:23.811Z,84.48
2019-02-11T11:50:27.235Z,85.56
2019-02-11T11:55:31.716Z,85.83
2019-02-11T12:00:35.436Z,86.39
2019-02-11T12:05:38.839Z,89.91
2019-02-11T12:10:42.302Z,91.25
2019-02-11T12:15:45.749Z,86.80
2019-02-11T12:20:49.189Z,85.48
2019-02-11T12:25:52.632Z,86.88
2019-02-11T12:30:56.092Z,82.81
2019-02-11T12:35:59.516Z,83.70
2019-02-11T12:41:02.962Z,85.78
2019-02-11T12:46:06.397Z,83.02
2019-02-11T12:51:09.817Z,80.60
2019-02-11T12:56:13.247Z,80.77
2019-02-11T13:01:16.665Z,76.90
2019-02-11T13:06:20.105Z,70.05
2019-02-11T13:11:23.594Z,62.36
2019-02-11T13:16:27.054Z,61.05
2019-02-11T13:21:30.535Z,62.64
2019-02-11T13:26:34.308Z,67.61
2019-02-11T13:31:37.776Z,65.74
2019-02-11T13:36:41.205Z,65.59
2019-02-11T13:41:44.687Z,62.32
2019-02-11T13:46:48.378Z,64.82
2019-02-11T13:51:52.218Z,64.99
2019-02-11T13:56:56.427Z,65.43
2019-02-11T14:01:59.959Z,65.15
2019-02-11T14:07:04.147Z,65.64
2019-02-11T14:12:07.912Z,67.19
2019-02-11T14:17:11.589Z,65.85
2019-02-11T14:22:15.060Z,66.49
2019-02-11T14:27:18.613Z,70.79
2019-02-11T14:32:22.106Z,69.82
2019-02-11T14:37:26.274Z,71.54
2019-02-11T14:42:30.168Z,73.04
2019-02-11T14:47:33.641Z,73.57
2019-02-11T14:52:37.181Z,73.68
2019-02-11T14:57:40.912Z,75.49
2019-02-11T15:02:44.712Z,75.61
2019-02-11T15:07:48.511Z,74.39
2019-02-11T15:12:51.968Z,72.59
2019-02-11T15:17:55.764Z,70.22
2019-02-11T15:22:59.196Z,67.04
2019-02-11T15:28:02.632Z,66.65
2019-02-11T15:33:06.074Z,66.97
2019-02-11T15:38:10.468Z,66.10
2019-02-11T15:43:13.883Z,68.14
2019-02-11T15:48:17.306Z,68.28
2019-02-11T15:53:20.717Z,68.22
2019-02-11T15:58:24.205Z,69.72
2019-02-11T16:03:27.592Z,71.12
2019-02-11T16:08:31.074Z,71.23
2019-02-11T16:13:34.534Z,72.57
2019-02-11T16:18:37.955Z,72.02
2019-02-11T16:23:41.375Z,70.68
2019-02-11T16:28:44.810Z,71.37
2019-02-11T16:33:48.239Z,68.97
2019-02-11T16:38:51.690Z,70.01
2019-02-11T16:43:55.106Z,69.57
2019-02-11T16:49:00.625Z,70.61
2019-02-11T16:54:05.567Z,70.25
2019-02-11T16:59:09.189Z,70.60
2019-02-11T17:04:12.609Z,69.87
2019-02-11T17:09:16.136Z,70.64
2019-02-11T17:14:19.548Z,71.34
2019-02-11T17:19:22.992Z,71.52
2019-02-11T17:24:26.469Z,72.04
2019-02-11T17:29:29.894Z,71.38
2019-02-11T17:34:33.325Z,75.05
2019-02-11T17:39:36.758Z,73.23
2019-02-11T17:44:40.296Z,71.76
2019-02-11T17:49:43.725Z,72.09
2019-02-11T17:54:47.179Z,72.82
2019-02-11T17:59:50.610Z,72.64
2019-02-11T18:04:54.205Z,72.64
2019-02-11T18:09:57.631Z,73.21
2019-02-11T18:15:01.076Z,73.43
2019-02-11T18:20:06.361Z,74.33
2019-02-11T18:25:10.539Z,75.38
2019-02-11T18:30:17.542Z,76.38
2019-02-11T18:35:22.486Z,77.35
2019-02-11T18:40:26.037Z,78.93
2019-02-11T18:45:29.615Z,79.42
2019-02-11T18:50:33.112Z,80.34
2019-02-11T18:55:36.542Z,81.60
2019-02-11T19:00:40.000Z,82.25
2019-02-11T19:05:43.443Z,82.77
2019-02-11T19:10:46.881Z,83.60
2019-02-11T19:15:50.400Z,84.37
2019-02-11T19:20:53.831Z,84.85
2019-02-11T19:25:57.265Z,85.05
2019-02-11T19:31:00.770Z,85.11
2019-02-11T19:36:04.341Z,87.12
2019-02-11T19:41:07.980Z,86.97
2019-02-11T19:46:11.475Z,87.85
2019-02-11T19:51:14.891Z,87.63
2019-02-11T19:56:18.433Z,88.55
2019-02-11T20:01:21.902Z,87.76
2019-02-11T20:06:26.055Z,88.50
2019-02-11T20:11:29.657Z,89.24
2019-02-11T20:16:33.072Z,88.11
2019-02-11T20:21:36.504Z,87.94
2019-02-11T20:26:39.960Z,88.39
2019-02-11T20:31:43.462Z,89.29
2019-02-11T20:36:46.873Z,88.82
2019-02-11T20:41:50.280Z,89.14
2019-02-11T20:46:53.716Z,89.54
2019-02-11T20:51:57.145Z,90.63
2019-02-11T20:57:00.651Z,89.22
2019-02-11T21:02:04.270Z,87.95
2019-02-11T21:07:07.818Z,84.26
2019-02-11T21:12:11.256Z,82.59
2019-02-11T21:17:14.786Z,79.81
2019-02-11T21:22:18.184Z,77.70
2019-02-11T21:27:21.807Z,73.27
2019-02-11T21:32:25.254Z,72.38
2019-02-11T21:37:28.829Z,73.91
2019-02-11T21:42:32.405Z,74.87
2019-02-11T21:47:36.247Z,74.66
2019-02-11T21:52:40.229Z,76.01
2019-02-11T21:57:43.638Z,76.57
2019-02-11T22:02:47.086Z,76.97
2019-02-11T22:07:50.505Z,77.65
2019-02-11T22:12:54.005Z,77.75
2019-02-11T22:17:57.419Z,78.56
2019-02-11T22:23:00.927Z,78.98
2019-02-11T22:28:04.351Z,80.68
2019-02-11T22:33:07.884Z,78.62
2019-02-11T22:38:11.342Z,78.13
2019-02-11T22:43:14.838Z,78.89
2019-02-11T22:48:18.270Z,76.92
2019-02-11T22:53:21.683Z,77.69
2019-02-11T22:58:25.089Z,77.41
2019-02-11T23:03:29.039Z,77.53
2019-02-11T23:08:32.478Z,77.82
2019-02-11T23:13:35.918Z,77.52
2019-02-11T23:18:39.330Z,77.28
2019-02-11T23:23:43.129Z,78.76
2019-02-11T23:28:46.536Z,78.01
2019-02-11T23:33:49.960Z,78.51
2019-02-11T23:38:53.389Z,78.88
2019-02-11T23:43:56.811Z,79.67
2019-02-11T23:49:00.256Z,79.66
2019-02-11T23:54:03.699Z,79.95
2019-02-11T23:59:07.135Z,80.82
